Accueil
METAR-TAF:

METAR-TAF

Aéroports :

Lansdowne House, Ontario, Canada

latitude: 52-11-44N, longitude: 87-56-03W, altitude: 254 m

Observation

Le bulletin a été fait il y a 54 minutes, à 14:04 UTC
Vent 12 kt de est/nord-est avec des rafales jusqu'à 17 kt
Température 7°C
Humidité 100%
Pression 1005 hPa
Visibilité: 14.5 km
Ciel couvert à une hauteur de 600 ft

METAR: CYLH 021404Z AUTO 07012G17KT 9SM OVC006 07/07 A2969 RMK SLP066

Heure: 10:58 (14:58 UTC)


TAF: absent

Observations et prévisions météorologiques de plus de 4000 aéroports (messages METAR et TAF).

Les stations disponibles sont représentées par des disques jaunes et rouges sur la carte.

Passer la souris dessus pour voir le nom de la station.

Cliquer dessus pour voir les observations et prévisions météorologiques.

Pour changer de carte: cliquez sur les boutons verts avec une croix noire pour zoomer, sur le bouton vert avec un tiret pour effectuer un zoom arrière, ou sur les flèches vertes pour les cartes adjacentes.


METAR-TAF: